Scituate, Rhode Island
Current Conditions -  °F | °C
As of 4:51 AM on Monday 22 Dec 2014 (Local Time) from KPVD Reporting Station
Overcast Overcast  
Wind Chill: 30°   Ceiling: 1000
Heat Index: 34°   Visibility: 10mi
Dew Point: 29°   Wind: 5mph
Humidity: 82%   Direction: 350°N
Pressure: 30.35"   Gusts: NA
Location:  41.7807°N, 71.7237°W
Report Text: KPVD 220951Z AUTO 35004KT 10SM OVC010 01/M02 A3035 RMK AO2 SLP277 T00111017
Loading
Personal Weather Stations






























Interactive Weather Map New forecast layout! Learn more

10-Day Weather Forecast

Advertisements
Track Severe Weather on mobile